Time;durP1;ratioP1;P1;durP2;ratioP2;P2;SDS_P1;SDS_P2;PMS_P1;PMS_P2;Temp;Humidity;BMP_temperature;BMP_pressure;BME280_temperature;BME280_humidity;BME280_pressure;Samples;Min_cycle;Max_cycle;Signal;HPM_P1;HPM_P2
2023/05/21 00:00:07;;;;;;;31.77;28.45;;;12.90;99.90;;;;;;4956945;28;21434;-74
2023/05/21 00:02:38;;;;;;;29.83;26.65;;;12.90;99.90;;;;;;4953527;28;20046;-74
2023/05/21 00:05:08;;;;;;;28.13;25.60;;;13.10;99.90;;;;;;4960888;28;20611;-73
2023/05/21 00:07:40;;;;;;;30.33;27.33;;;13.00;99.90;;;;;;4956533;28;20133;-73
2023/05/21 00:10:07;;;;;;;28.52;25.83;;;13.00;99.90;;;;;;4949516;28;20618;-74
2023/05/21 00:12:34;;;;;;;29.73;26.65;;;12.90;99.90;;;;;;4950350;28;20051;-73
2023/05/21 00:15:00;;;;;;;30.58;27.45;;;12.90;99.90;;;;;;4947538;28;20063;-73
2023/05/21 00:17:27;;;;;;;30.90;27.45;;;12.90;99.90;;;;;;4954269;28;20050;-73
2023/05/21 00:19:55;;;;;;;31.67;28.20;;;12.80;99.90;;;;;;4950867;28;20055;-75
2023/05/21 00:22:22;;;;;;;30.63;27.67;;;12.80;99.90;;;;;;4952513;28;20111;-74
2023/05/21 00:24:49;;;;;;;31.63;28.65;;;12.80;99.90;;;;;;4952613;28;20564;-75
2023/05/21 00:27:16;;;;;;;31.95;28.95;;;12.70;99.90;;;;;;4954510;28;20462;-74
2023/05/21 00:29:43;;;;;;;32.47;28.95;;;12.70;99.90;;;;;;4951108;28;20043;-74
2023/05/21 00:32:10;;;;;;;32.28;29.27;;;12.70;99.90;;;;;;4949780;28;20042;-74
2023/05/21 00:34:37;;;;;;;32.58;29.38;;;12.60;99.90;;;;;;4953466;28;20073;-74
2023/05/21 00:37:04;;;;;;;31.23;28.17;;;12.60;99.90;;;;;;4947058;28;20125;-72
2023/05/21 00:39:30;;;;;;;32.63;29.02;;;12.60;99.90;;;;;;4959295;28;20058;-72
2023/05/21 00:41:57;;;;;;;32.97;29.55;;;12.60;99.90;;;;;;4953121;28;20051;-74
2023/05/21 00:44:24;;;;;;;33.58;30.05;;;12.60;99.90;;;;;;4949643;28;20047;-74
2023/05/21 00:46:54;;;;;;;33.45;30.15;;;12.50;99.90;;;;;;4956017;28;20042;-74
2023/05/21 00:49:23;;;;;;;33.53;29.98;;;12.50;99.90;;;;;;4953365;28;20054;-74
2023/05/21 00:51:50;;;;;;;33.08;29.60;;;12.50;99.90;;;;;;4946360;28;20046;-74
2023/05/21 00:54:17;;;;;;;33.10;29.50;;;12.50;99.90;;;;;;4957172;28;20042;-74
2023/05/21 00:56:46;;;;;;;33.13;29.58;;;12.50;99.90;;;;;;4948244;28;20049;-73
2023/05/21 00:59:15;;;;;;;33.47;29.50;;;12.50;99.90;;;;;;4957003;28;20602;-72
2023/05/21 01:01:44;;;;;;;32.60;29.33;;;12.40;99.90;;;;;;4952369;28;20078;-74
2023/05/21 01:04:12;;;;;;;33.53;30.05;;;12.30;99.90;;;;;;4956852;28;20042;-73
2023/05/21 01:06:38;;;;;;;34.50;29.60;;;12.30;99.90;;;;;;4945915;28;20109;-73
2023/05/21 01:09:06;;;;;;;34.40;30.65;;;12.30;99.90;;;;;;4958365;28;20460;-73
2023/05/21 01:11:43;;;;;;;34.25;30.83;;;12.30;99.90;;;;;;4946568;28;20043;-73
2023/05/21 01:14:12;;;;;;;41.30;31.05;;;12.30;99.90;;;;;;4952614;28;20082;-73
2023/05/21 01:16:41;;;;;;;35.58;31.73;;;12.30;99.90;;;;;;4952184;28;20066;-73
2023/05/21 01:19:12;;;;;;;34.10;30.45;;;12.20;99.90;;;;;;4947201;28;20073;-74
2023/05/21 01:21:43;;;;;;;37.33;31.90;;;12.30;99.90;;;;;;4947240;28;20055;-74
2023/05/21 01:24:10;;;;;;;34.45;30.60;;;12.30;99.90;;;;;;4949320;28;20063;-73
2023/05/21 01:26:37;;;;;;;35.22;31.45;;;12.30;99.90;;;;;;4949431;28;20047;-73
2023/05/21 01:29:11;;;;;;;34.80;31.33;;;12.30;99.90;;;;;;4951527;28;20059;-74
2023/05/21 01:32:10;;;;;;;35.22;31.70;;;12.10;99.90;;;;;;4934002;28;20141;-74
2023/05/21 01:35:06;;;;;;;35.92;32.35;;;12.10;99.90;;;;;;4948141;28;20139;-73
2023/05/21 01:37:44;;;;;;;37.55;33.22;;;12.10;99.90;;;;;;4923357;28;20059;-73
2023/05/21 01:40:21;;;;;;;38.63;34.00;;;12.00;99.90;;;;;;4956963;28;20038;-73
2023/05/21 01:42:48;;;;;;;39.17;34.67;;;11.90;99.90;;;;;;4951589;28;20057;-73
2023/05/21 01:45:16;;;;;;;38.17;34.25;;;11.90;99.90;;;;;;4956879;28;20220;-73
2023/05/21 01:47:47;;;;;;;39.47;35.33;;;11.80;99.90;;;;;;4947743;28;20054;-74
2023/05/21 01:50:15;;;;;;;36.20;32.47;;;11.80;99.90;;;;;;4947435;28;20220;-74
2023/05/21 01:52:52;;;;;;;36.65;32.85;;;11.90;99.90;;;;;;4943367;28;20094;-73
2023/05/21 01:55:23;;;;;;;37.88;34.03;;;11.90;99.90;;;;;;4938173;28;20058;-73
2023/05/21 01:57:52;;;;;;;38.00;33.33;;;12.00;99.90;;;;;;4950875;28;20046;-74
2023/05/21 02:00:24;;;;;;;38.05;33.78;;;12.00;99.90;;;;;;4956279;28;20047;-74
2023/05/21 02:02:51;;;;;;;37.88;33.97;;;12.00;99.90;;;;;;4947328;28;20584;-74
2023/05/21 02:05:18;;;;;;;38.38;34.22;;;11.90;99.90;;;;;;4955123;28;20533;-74
2023/05/21 02:07:46;;;;;;;38.92;35.03;;;11.90;99.90;;;;;;4944477;28;20058;-73
2023/05/21 02:10:13;;;;;;;37.38;33.53;;;11.90;99.90;;;;;;4954080;28;20054;-74
2023/05/21 02:12:40;;;;;;;36.10;32.25;;;12.00;99.90;;;;;;4956640;28;20098;-74
2023/05/21 02:15:08;;;;;;;40.13;34.13;;;12.00;99.90;;;;;;4951636;28;20035;-74
2023/05/21 02:17:34;;;;;;;36.47;32.45;;;12.00;99.90;;;;;;4944312;28;20599;-74
2023/05/21 02:20:10;;;;;;;37.25;33.40;;;12.00;99.90;;;;;;4942150;28;20550;-72
2023/05/21 02:22:45;;;;;;;36.00;32.15;;;12.00;99.90;;;;;;4954736;28;20043;-74
2023/05/21 02:25:17;;;;;;;36.72;32.88;;;12.00;99.90;;;;;;4953327;28;20125;-73
2023/05/21 02:27:45;;;;;;;37.17;33.20;;;12.10;99.90;;;;;;4955589;28;20042;-73
2023/05/21 02:30:13;;;;;;;37.50;33.10;;;12.10;99.90;;;;;;4954105;28;20452;-74
2023/05/21 02:32:41;;;;;;;38.30;32.67;;;12.10;99.90;;;;;;4955050;28;20054;-73
2023/05/21 02:35:10;;;;;;;36.15;32.53;;;12.10;99.90;;;;;;4951785;28;20047;-72
2023/05/21 02:37:39;;;;;;;38.28;34.28;;;12.10;99.90;;;;;;4953372;28;20047;-73
2023/05/21 02:40:06;;;;;;;40.72;34.58;;;12.00;99.90;;;;;;4948664;28;20078;-73
2023/05/21 02:42:35;;;;;;;39.72;35.22;;;11.90;99.90;;;;;;4934945;28;20048;-72
2023/05/21 02:45:02;;;;;;;40.47;36.15;;;11.90;99.90;;;;;;4951214;28;20309;-75
2023/05/21 02:47:29;;;;;;;41.30;36.97;;;11.90;99.90;;;;;;4955656;28;20536;-75
2023/05/21 02:49:58;;;;;;;43.85;37.70;;;11.90;99.90;;;;;;4956164;28;20070;-73
2023/05/21 02:52:25;;;;;;;43.88;39.22;;;11.90;99.90;;;;;;4956545;28;20058;-72
2023/05/21 02:54:52;;;;;;;42.28;37.85;;;12.00;99.90;;;;;;4956568;28;20452;-73
2023/05/21 02:57:19;;;;;;;42.40;37.78;;;12.00;99.90;;;;;;4954728;28;20086;-72
2023/05/21 02:59:46;;;;;;;42.17;37.85;;;12.00;99.90;;;;;;4972752;28;20605;-72
2023/05/21 03:02:13;;;;;;;41.25;36.78;;;12.00;99.90;;;;;;4957128;28;20042;-72
2023/05/21 03:04:44;;;;;;;41.65;37.17;;;12.00;99.90;;;;;;4951361;28;20043;-73
2023/05/21 03:07:13;;;;;;;42.13;36.25;;;12.10;99.90;;;;;;4946904;28;20143;-73
2023/05/21 03:09:41;;;;;;;41.33;36.97;;;12.00;99.90;;;;;;4947760;28;20461;-73
2023/05/21 03:12:08;;;;;;;42.50;37.05;;;12.00;99.90;;;;;;4949014;28;20047;-72
2023/05/21 03:14:36;;;;;;;45.10;38.15;;;11.90;99.90;;;;;;4958386;28;20066;-72
2023/05/21 03:17:04;;;;;;;40.75;36.42;;;12.00;99.90;;;;;;4950278;28;20042;-73
2023/05/21 03:19:35;;;;;;;43.75;38.22;;;12.00;99.90;;;;;;4935384;28;20047;-73
2023/05/21 03:22:03;;;;;;;41.90;37.17;;;12.00;99.90;;;;;;4949267;28;20739;-73
2023/05/21 03:24:34;;;;;;;43.85;37.38;;;11.90;99.90;;;;;;4954613;28;20061;-72
2023/05/21 03:27:05;;;;;;;38.05;34.20;;;11.90;99.90;;;;;;4945762;28;20046;-74
2023/05/21 03:29:32;;;;;;;44.67;37.47;;;11.90;99.90;;;;;;4956649;28;20059;-74
2023/05/21 03:32:01;;;;;;;40.42;36.17;;;11.90;99.90;;;;;;4947982;28;20063;-74
2023/05/21 03:34:29;;;;;;;42.80;37.83;;;11.90;99.90;;;;;;4961815;28;20082;-73
2023/05/21 03:36:57;;;;;;;43.05;37.17;;;11.90;99.90;;;;;;4950424;28;20050;-73
2023/05/21 03:39:25;;;;;;;43.83;38.55;;;11.80;99.90;;;;;;4958497;28;20074;-73
2023/05/21 03:41:54;;;;;;;46.67;38.10;;;11.80;99.90;;;;;;4937050;28;20042;-73
2023/05/21 03:44:31;;;;;;;41.53;37.05;;;11.90;99.90;;;;;;4940621;28;20079;-73
2023/05/21 03:47:11;;;;;;;46.97;37.88;;;12.00;99.90;;;;;;4963800;28;20516;-73
2023/05/21 03:49:37;;;;;;;48.33;39.60;;;12.00;99.90;;;;;;4957514;28;20046;-73
2023/05/21 03:52:05;;;;;;;43.72;39.03;;;12.00;99.90;;;;;;4951476;28;20057;-72
2023/05/21 03:54:32;;;;;;;45.63;39.20;;;12.00;99.90;;;;;;4950717;28;20063;-73
2023/05/21 03:57:02;;;;;;;42.08;36.25;;;12.00;99.90;;;;;;4945136;28;20084;-73
2023/05/21 03:59:29;;;;;;;44.13;39.30;;;11.90;99.90;;;;;;4956630;28;20051;-72
2023/05/21 04:01:57;;;;;;;41.88;36.05;;;12.00;99.90;;;;;;4954209;28;20160;-72
2023/05/21 04:04:24;;;;;;;44.13;39.38;;;11.90;99.90;;;;;;4958146;28;20043;-73
2023/05/21 04:06:53;;;;;;;44.50;39.13;;;12.00;99.90;;;;;;4953471;28;20141;-74
2023/05/21 04:09:21;;;;;;;43.83;39.10;;;12.10;99.90;;;;;;4979047;23;20143;-76
2023/05/21 04:11:47;;;;;;;44.90;38.17;;;12.10;99.90;;;;;;4961795;28;20155;-76
2023/05/21 04:14:14;;;;;;;45.83;38.95;;;12.20;99.90;;;;;;4984566;28;20257;-76
2023/05/21 04:16:42;;;;;;;38.65;34.28;;;12.20;99.90;;;;;;4985330;28;20053;-75
2023/05/21 04:19:09;;;;;;;40.45;35.90;;;12.20;99.90;;;;;;4979577;28;20109;-76
2023/05/21 04:21:36;;;;;;;38.22;34.25;;;12.30;99.90;;;;;;4986703;28;20108;-76
2023/05/21 04:24:04;;;;;;;39.08;35.00;;;12.30;99.90;;;;;;4982939;28;20320;-76
2023/05/21 04:27:09;;;;;;;42.72;36.35;;;12.40;99.90;;;;;;4933614;29;20051;-75
2023/05/21 04:29:36;;;;;;;37.90;33.30;;;12.50;99.90;;;;;;4910784;29;20061;-76
2023/05/21 04:32:04;;;;;;;39.50;33.60;;;12.50;99.90;;;;;;4946374;28;20499;-75
2023/05/21 04:34:32;;;;;;;37.95;33.83;;;12.50;99.90;;;;;;4982080;28;20034;-77
2023/05/21 04:37:01;;;;;;;42.30;36.00;;;12.50;99.90;;;;;;4983118;28;20140;-76
2023/05/21 04:39:30;;;;;;;40.20;34.90;;;12.60;99.90;;;;;;4975614;28;20160;-75
2023/05/21 04:41:56;;;;;;;39.92;34.65;;;12.60;99.90;;;;;;4990890;28;20475;-75
2023/05/21 04:44:24;;;;;;;37.35;33.33;;;12.70;99.90;;;;;;4985945;28;20558;-75
2023/05/21 04:46:51;;;;;;;39.03;34.78;;;12.60;99.90;;;;;;4988962;28;20491;-76
2023/05/21 04:49:19;;;;;;;39.30;35.10;;;12.70;99.90;;;;;;4984834;28;20149;-75
2023/05/21 04:51:46;;;;;;;38.15;32.55;;;12.70;99.90;;;;;;4985818;28;20112;-75
2023/05/21 04:54:13;;;;;;;37.72;33.78;;;12.80;99.90;;;;;;4984392;28;20514;-75
2023/05/21 04:56:40;;;;;;;36.55;32.40;;;12.80;99.90;;;;;;4988663;28;20121;-75
2023/05/21 04:59:07;;;;;;;40.15;33.95;;;12.70;99.90;;;;;;4990585;28;20050;-74
2023/05/21 05:01:34;;;;;;;36.88;32.90;;;12.80;99.90;;;;;;4966848;28;20041;-75
2023/05/21 05:04:00;;;;;;;36.45;32.50;;;12.90;99.90;;;;;;4986031;28;21219;-75
2023/05/21 05:06:28;;;;;;;38.40;32.17;;;12.90;99.90;;;;;;4986206;28;20046;-75
2023/05/21 05:08:54;;;;;;;36.97;32.10;;;12.90;99.90;;;;;;4989334;28;20631;-75
2023/05/21 05:11:21;;;;;;;36.20;31.70;;;12.90;99.90;;;;;;4990805;28;20046;-76
2023/05/21 05:13:49;;;;;;;37.70;32.65;;;12.90;99.90;;;;;;5003697;28;20078;-75
2023/05/21 05:16:18;;;;;;;35.75;32.03;;;12.90;99.90;;;;;;4985543;28;20141;-75
2023/05/21 05:18:45;;;;;;;35.97;32.17;;;13.00;99.90;;;;;;4986569;28;20053;-76
2023/05/21 05:21:11;;;;;;;37.85;32.38;;;13.00;99.90;;;;;;4981797;28;20048;-75
2023/05/21 05:23:38;;;;;;;37.03;32.67;;;13.00;99.90;;;;;;4984742;28;20050;-75
2023/05/21 05:26:07;;;;;;;40.38;33.25;;;13.00;99.90;;;;;;4981070;28;20038;-76
2023/05/21 05:28:33;;;;;;;38.78;33.75;;;12.90;99.90;;;;;;4985939;28;20060;-76
2023/05/21 05:31:00;;;;;;;35.65;31.85;;;12.90;99.90;;;;;;4987939;28;20083;-75
2023/05/21 05:33:27;;;;;;;36.08;32.25;;;12.90;99.90;;;;;;5005680;28;20058;-76
2023/05/21 05:35:54;;;;;;;36.08;31.98;;;13.00;99.90;;;;;;4972532;28;20670;-75
2023/05/21 05:38:21;;;;;;;36.50;32.60;;;13.00;99.90;;;;;;4989951;28;20055;-76
2023/05/21 05:40:47;;;;;;;36.30;32.40;;;13.10;99.90;;;;;;4981436;28;20259;-77
2023/05/21 05:43:15;;;;;;;36.65;32.75;;;13.10;99.90;;;;;;4974206;28;20519;-76
2023/05/21 05:45:42;;;;;;;36.47;31.45;;;13.10;99.90;;;;;;4988613;28;20130;-75
2023/05/21 05:48:12;;;;;;;36.35;32.53;;;13.10;99.90;;;;;;4992732;28;20046;-75
2023/05/21 05:50:40;;;;;;;36.97;33.10;;;13.30;99.90;;;;;;4992226;28;20534;-75
2023/05/21 05:53:07;;;;;;;37.47;33.38;;;13.40;99.90;;;;;;4990544;28;20128;-76
2023/05/21 05:55:34;;;;;;;34.83;31.27;;;13.50;99.90;;;;;;4988562;28;20117;-75
2023/05/21 05:58:01;;;;;;;35.47;31.95;;;13.40;99.90;;;;;;4989551;28;20074;-75
2023/05/21 06:00:28;;;;;;;35.70;32.00;;;13.40;99.90;;;;;;4995014;28;20049;-75
2023/05/21 06:02:57;;;;;;;35.35;31.55;;;13.30;99.90;;;;;;4990780;28;20338;-75
2023/05/21 06:05:24;;;;;;;37.13;32.95;;;13.30;99.90;;;;;;4984436;28;20042;-75
2023/05/21 06:07:51;;;;;;;35.63;32.05;;;13.40;99.90;;;;;;4988937;28;20531;-75
2023/05/21 06:10:19;;;;;;;36.72;32.00;;;13.50;99.90;;;;;;4985822;28;20570;-75
2023/05/21 06:12:46;;;;;;;35.58;31.75;;;13.40;99.90;;;;;;4988480;28;20056;-75
2023/05/21 06:15:18;;;;;;;36.80;32.97;;;13.50;99.90;;;;;;5005332;28;20057;-76
2023/05/21 06:17:44;;;;;;;35.80;32.05;;;13.60;99.90;;;;;;4988154;28;20124;-74
2023/05/21 06:20:12;;;;;;;36.35;32.80;;;13.80;99.90;;;;;;5010970;28;20231;-74
2023/05/21 06:22:39;;;;;;;36.28;32.40;;;13.90;99.90;;;;;;5014556;28;20077;-74
2023/05/21 06:25:09;;;;;;;36.42;32.88;;;13.80;99.90;;;;;;5000861;28;20428;-75
2023/05/21 06:27:37;;;;;;;35.83;32.13;;;13.90;99.90;;;;;;4989486;28;20300;-76
2023/05/21 06:30:08;;;;;;;40.53;32.22;;;13.80;99.90;;;;;;4977520;28;20042;-74
2023/05/21 06:32:35;;;;;;;34.08;30.75;;;13.90;99.90;;;;;;4993300;28;20046;-74
2023/05/21 06:35:03;;;;;;;35.28;31.60;;;13.80;99.90;;;;;;4986511;28;20039;-74
2023/05/21 06:37:30;;;;;;;35.22;31.55;;;13.80;99.90;;;;;;5009214;28;20096;-76
2023/05/21 06:39:56;;;;;;;35.78;32.08;;;13.80;99.90;;;;;;4990667;28;20053;-76
2023/05/21 06:42:23;;;;;;;37.25;33.60;;;14.00;99.90;;;;;;4986451;28;20510;-76
2023/05/21 06:45:13;;;;;;;37.83;34.08;;;14.20;99.90;;;;;;4989508;28;20451;-75
2023/05/21 06:47:42;;;;;;;37.30;33.33;;;14.50;99.90;;;;;;4991013;28;20065;-75
2023/05/21 06:50:09;;;;;;;35.55;31.98;;;14.60;99.90;;;;;;4992777;28;20230;-75
2023/05/21 06:52:36;;;;;;;37.05;33.65;;;14.60;99.90;;;;;;4984842;28;20133;-76
2023/05/21 06:55:03;;;;;;;35.05;31.85;;;14.80;99.90;;;;;;4989422;28;20045;-75
2023/05/21 06:57:48;;;;;;;36.75;33.13;;;15.10;99.90;;;;;;4973721;28;20408;-77
2023/05/21 07:00:15;;;;;;;38.03;34.53;;;15.50;99.90;;;;;;4986340;28;20125;-76
2023/05/21 07:02:41;;;;;;;37.28;33.83;;;15.70;99.90;;;;;;4989004;28;20668;-75
2023/05/21 07:05:08;;;;;;;37.15;33.83;;;15.90;99.90;;;;;;4988437;28;20042;-75
2023/05/21 07:07:35;;;;;;;37.75;34.03;;;15.90;99.90;;;;;;4987865;28;20121;-76
2023/05/21 07:10:02;;;;;;;37.92;34.42;;;15.70;99.90;;;;;;4988240;28;20215;-75
2023/05/21 07:12:29;;;;;;;38.00;34.22;;;15.70;99.90;;;;;;4988643;28;20444;-75
2023/05/21 07:14:56;;;;;;;39.28;35.38;;;15.40;99.90;;;;;;4986205;28;20049;-76
2023/05/21 07:17:25;;;;;;;40.58;36.88;;;15.60;99.90;;;;;;4986622;28;20656;-75
2023/05/21 07:19:52;;;;;;;40.05;36.33;;;15.60;99.90;;;;;;4986783;28;20271;-76
2023/05/21 07:22:19;;;;;;;43.35;39.25;;;15.70;99.90;;;;;;4983398;28;20110;-76
2023/05/21 07:24:45;;;;;;;41.88;38.08;;;15.80;99.90;;;;;;4986437;28;20071;-76
2023/05/21 07:27:12;;;;;;;44.75;40.33;;;15.80;99.90;;;;;;4985930;28;20825;-75
2023/05/21 07:29:51;;;;;;;42.25;38.53;;;15.70;99.90;;;;;;4975731;28;20046;-76
2023/05/21 07:32:19;;;;;;;39.83;36.33;;;15.50;99.90;;;;;;4986974;28;20108;-76
2023/05/21 07:34:47;;;;;;;40.28;36.45;;;15.70;99.90;;;;;;4984407;28;20105;-75
2023/05/21 07:37:13;;;;;;;40.58;36.38;;;15.50;99.90;;;;;;4983112;28;20046;-76
2023/05/21 07:39:40;;;;;;;39.53;36.25;;;15.40;99.90;;;;;;4985509;28;20092;-76
2023/05/21 07:42:07;;;;;;;39.80;36.00;;;15.30;99.90;;;;;;4985597;28;20200;-75
2023/05/21 07:44:34;;;;;;;40.53;36.58;;;15.20;99.90;;;;;;4989923;28;20081;-75
2023/05/21 07:47:02;;;;;;;40.97;37.17;;;15.40;99.90;;;;;;4987016;28;20046;-76
2023/05/21 07:49:28;;;;;;;40.33;36.42;;;15.50;99.90;;;;;;4991831;28;20204;-75
2023/05/21 07:51:55;;;;;;;40.28;36.42;;;15.50;99.90;;;;;;4988800;28;20046;-75
2023/05/21 07:54:23;;;;;;;41.05;37.17;;;15.50;99.90;;;;;;4988765;28;20034;-76
2023/05/21 07:56:50;;;;;;;41.13;37.42;;;15.90;99.90;;;;;;4970635;28;20543;-75
2023/05/21 07:59:37;;;;;;;43.38;39.47;;;16.10;99.90;;;;;;4990232;28;20052;-76
2023/05/21 08:02:04;;;;;;;39.58;35.92;;;16.10;99.90;;;;;;4965901;28;20134;-75
2023/05/21 08:04:31;;;;;;;42.42;38.17;;;16.30;99.90;;;;;;4986164;28;20060;-76
2023/05/21 08:06:57;;;;;;;39.20;35.72;;;16.60;99.90;;;;;;4968974;28;20120;-76
2023/05/21 08:09:24;;;;;;;43.20;39.40;;;16.50;99.90;;;;;;4971719;28;20038;-76
2023/05/21 08:11:51;;;;;;;42.08;38.45;;;16.80;99.90;;;;;;4986315;28;20054;-75
2023/05/21 08:14:18;;;;;;;43.70;39.67;;;17.10;99.90;;;;;;4976588;28;20308;-76
2023/05/21 08:16:45;;;;;;;44.15;40.22;;;17.30;99.90;;;;;;4986440;28;20480;-75
2023/05/21 08:19:12;;;;;;;43.85;40.08;;;17.70;99.90;;;;;;4971691;28;20676;-75
2023/05/21 08:21:39;;;;;;;43.80;40.08;;;17.80;99.90;;;;;;4992226;28;20410;-76
2023/05/21 08:24:06;;;;;;;43.80;40.20;;;17.80;99.90;;;;;;4992454;28;20039;-75
2023/05/21 08:26:33;;;;;;;44.15;40.42;;;17.60;99.90;;;;;;4985643;28;20151;-76
2023/05/21 08:29:01;;;;;;;45.80;41.88;;;17.10;99.90;;;;;;4973670;28;20065;-77
2023/05/21 08:31:28;;;;;;;46.83;42.95;;;17.20;99.90;;;;;;4973799;28;20068;-75
2023/05/21 08:33:55;;;;;;;45.55;41.72;;;17.50;99.90;;;;;;4986284;28;20142;-74
2023/05/21 08:36:33;;;;;;;42.33;38.65;;;18.00;99.90;;;;;;4983950;28;20061;-76
2023/05/21 08:39:07;;;;;;;45.45;41.60;;;18.10;99.90;;;;;;4972636;28;20104;-75
2023/05/21 08:41:36;;;;;;;44.42;40.30;;;18.00;99.90;;;;;;4987412;28;20322;-77
2023/05/21 08:44:10;;;;;;;45.58;41.47;;;18.10;99.90;;;;;;4970149;28;20200;-76
2023/05/21 08:46:39;;;;;;;45.60;42.08;;;18.60;99.90;;;;;;4968455;28;20038;-75
2023/05/21 08:49:10;;;;;;;46.75;42.45;;;18.70;99.90;;;;;;4986284;28;20061;-76
2023/05/21 08:51:38;;;;;;;46.28;42.15;;;18.40;99.90;;;;;;4986294;28;20061;-76
2023/05/21 08:54:06;;;;;;;46.58;42.45;;;18.50;99.90;;;;;;4985614;28;20057;-75
2023/05/21 08:56:34;;;;;;;45.67;41.75;;;18.70;99.90;;;;;;4973204;28;20042;-77
2023/05/21 08:59:01;;;;;;;43.30;39.75;;;19.20;99.90;;;;;;4968475;28;20065;-76
2023/05/21 09:01:33;;;;;;;44.90;41.42;;;19.80;99.90;;;;;;4988650;28;20049;-76
2023/05/21 09:04:19;;;;;;;44.35;40.65;;;20.40;99.90;;;;;;4974191;28;20044;-77
2023/05/21 09:06:53;;;;;;;47.35;43.60;;;20.30;99.90;;;;;;4971142;28;20038;-76
2023/05/21 09:09:45;;;;;;;45.15;41.53;;;20.60;99.90;;;;;;4987553;28;20429;-77
2023/05/21 09:12:13;;;;;;;45.20;41.53;;;20.60;99.90;;;;;;5005692;28;20407;-77
2023/05/21 09:14:41;;;;;;;43.08;39.53;;;20.40;99.90;;;;;;4985135;28;20211;-76
2023/05/21 09:17:14;;;;;;;46.55;42.83;;;20.70;99.90;;;;;;4987247;28;21189;-77
2023/05/21 09:20:12;;;;;;;48.90;44.60;;;20.70;99.90;;;;;;4986336;28;20100;-75
2023/05/21 09:22:47;;;;;;;46.22;42.58;;;20.40;99.90;;;;;;4991153;28;20170;-80
2023/05/21 09:25:17;;;;;;;46.88;43.20;;;20.10;99.90;;;;;;4992229;28;20041;-76
2023/05/21 09:27:44;;;;;;;46.35;42.75;;;19.90;99.90;;;;;;5004809;28;20129;-77
2023/05/21 09:30:13;;;;;;;48.20;44.65;;;20.10;99.90;;;;;;4985303;28;20045;-76
2023/05/21 09:32:41;;;;;;;45.80;42.20;;;20.50;99.90;;;;;;4968687;28;20038;-75
2023/05/21 09:35:14;;;;;;;44.88;41.38;;;20.50;99.90;;;;;;4985690;28;20439;-75
2023/05/21 09:37:43;;;;;;;48.88;45.17;;;20.40;99.90;;;;;;4990525;28;20411;-75
2023/05/21 09:40:18;;;;;;;48.30;44.38;;;20.20;99.90;;;;;;4984492;28;20081;-76
2023/05/21 09:42:50;;;;;;;46.60;42.60;;;19.90;99.90;;;;;;4985885;28;20053;-77
2023/05/21 09:45:26;;;;;;;47.92;44.05;;;20.20;99.90;;;;;;4980560;28;20054;-76
2023/05/21 09:47:56;;;;;;;47.40;43.78;;;20.30;99.90;;;;;;4981667;28;20046;-77
2023/05/21 09:50:26;;;;;;;47.13;43.35;;;20.30;99.90;;;;;;4976813;28;20504;-77
2023/05/21 09:52:54;;;;;;;46.90;43.28;;;20.30;99.90;;;;;;4963512;28;20149;-77
2023/05/21 09:55:22;;;;;;;48.20;44.65;;;20.40;99.90;;;;;;4981064;28;20046;-77
2023/05/21 09:57:51;;;;;;;48.80;45.25;;;20.40;99.90;;;;;;4989244;28;20133;-77
2023/05/21 10:00:23;;;;;;;49.45;45.35;;;20.60;99.90;;;;;;4990748;28;20049;-76
2023/05/21 10:02:54;;;;;;;46.58;43.00;;;20.30;99.90;;;;;;4990894;28;20334;-77
2023/05/21 10:05:26;;;;;;;44.90;41.45;;;20.50;99.90;;;;;;4970423;28;20109;-76
2023/05/21 10:08:02;;;;;;;46.63;42.47;;;20.60;99.90;;;;;;4988094;28;20046;-77
2023/05/21 10:10:32;;;;;;;45.65;42.33;;;20.50;99.90;;;;;;4969045;23;20604;-76
2023/05/21 10:13:07;;;;;;;46.65;43.05;;;20.80;99.90;;;;;;4944072;28;20043;-75
2023/05/21 10:15:41;;;;;;;46.05;42.65;;;20.80;99.90;;;;;;4946998;28;20166;-74
2023/05/21 10:18:09;;;;;;;45.28;41.85;;;21.00;99.90;;;;;;4952841;28;20547;-73
2023/05/21 10:20:37;;;;;;;44.40;40.97;;;21.50;99.90;;;;;;4945785;28;20439;-73
2023/05/21 10:23:05;;;;;;;46.38;43.08;;;21.70;99.90;;;;;;4938893;28;20090;-72
2023/05/21 10:25:32;;;;;;;47.25;43.47;;;21.80;99.90;;;;;;4945663;28;20043;-73
2023/05/21 10:27:59;;;;;;;49.47;45.85;;;21.80;99.90;;;;;;4948294;28;20098;-74
2023/05/21 10:30:26;;;;;;;47.20;43.70;;;21.60;99.90;;;;;;4942480;28;20132;-74
2023/05/21 10:32:55;;;;;;;45.67;42.47;;;21.70;99.90;;;;;;4942171;28;20118;-75
2023/05/21 10:35:23;;;;;;;46.42;42.97;;;21.70;99.90;;;;;;4941625;28;20173;-73
2023/05/21 10:37:51;;;;;;;43.15;40.05;;;21.70;99.90;;;;;;4945347;28;20086;-73
2023/05/21 10:40:17;;;;;;;44.95;41.75;;;22.10;99.90;;;;;;4941194;28;20633;-75
2023/05/21 10:43:02;;;;;;;44.40;41.22;;;21.90;99.90;;;;;;4948545;28;20039;-74
2023/05/21 10:46:06;;;;;;;46.55;43.15;;;22.20;99.90;;;;;;4946952;28;20053;-74
2023/05/21 10:48:59;;;;;;;47.08;43.80;;;22.30;99.90;;;;;;4949618;28;20579;-73
2023/05/21 10:51:47;;;;;;;45.92;42.65;;;21.60;99.90;;;;;;4942515;28;20109;-72
2023/05/21 10:54:30;;;;;;;48.45;44.95;;;21.90;99.90;;;;;;4943924;28;20454;-75
2023/05/21 10:56:56;;;;;;;47.22;43.63;;;22.10;99.90;;;;;;4964026;28;20047;-73
2023/05/21 10:59:32;;;;;;;46.33;43.22;;;21.90;99.90;;;;;;4943285;28;20079;-74
2023/05/21 11:02:00;;;;;;;47.47;44.17;;;22.40;99.90;;;;;;4946082;28;20051;-72
2023/05/21 11:04:28;;;;;;;46.42;42.97;;;22.10;99.90;;;;;;4938172;28;20047;-73
2023/05/21 11:06:56;;;;;;;47.47;44.08;;;22.10;99.90;;;;;;4944766;28;20181;-74
2023/05/21 11:09:23;;;;;;;45.90;42.75;;;22.50;99.90;;;;;;4943382;28;20054;-74
2023/05/21 11:11:51;;;;;;;46.25;42.95;;;22.30;99.90;;;;;;4954981;28;20047;-74
2023/05/21 11:14:40;;;;;;;46.97;43.67;;;22.20;99.90;;;;;;4937712;28;20089;-73
2023/05/21 11:17:37;;;;;;;47.13;43.78;;;22.80;99.90;;;;;;4950312;28;20693;-73
2023/05/21 11:20:12;;;;;;;46.17;42.83;;;22.80;99.90;;;;;;4942587;28;20054;-74
2023/05/21 11:22:39;;;;;;;48.15;44.70;;;23.00;99.90;;;;;;4947958;28;20058;-74
2023/05/21 11:25:07;;;;;;;44.83;41.15;;;23.10;99.90;;;;;;4947531;28;20047;-74
2023/05/21 11:27:40;;;;;;;44.80;41.78;;;22.70;99.90;;;;;;4955424;28;20088;-75
2023/05/21 11:30:09;;;;;;;46.85;43.30;;;22.70;99.90;;;;;;4958150;28;20103;-73
2023/05/21 11:32:56;;;;;;;48.63;44.75;;;22.40;99.90;;;;;;4936731;28;20059;-73
2023/05/21 11:35:23;;;;;;;46.72;42.97;;;22.50;99.90;;;;;;4955524;28;20043;-73
2023/05/21 11:37:52;;;;;;;45.20;42.00;;;22.70;99.90;;;;;;4954657;28;20635;-74
2023/05/21 11:40:29;;;;;;;47.88;44.63;;;22.90;99.90;;;;;;4943370;28;20067;-73
2023/05/21 11:42:56;;;;;;;46.55;43.35;;;22.90;99.90;;;;;;4945765;28;20082;-72
2023/05/21 11:45:28;;;;;;;47.13;44.00;;;22.90;99.90;;;;;;4940588;28;20075;-73
2023/05/21 11:47:55;;;;;;;47.17;43.97;;;22.50;99.90;;;;;;4954075;28;20063;-74
2023/05/21 11:50:22;;;;;;;47.35;43.90;;;22.60;99.90;;;;;;4950347;28;20146;-72
2023/05/21 11:52:49;;;;;;;49.13;45.85;;;22.70;99.90;;;;;;4954204;28;20839;-75
2023/05/21 11:55:24;;;;;;;47.03;44.03;;;22.80;99.90;;;;;;4944277;28;20130;-74
2023/05/21 11:57:52;;;;;;;;;;;22.90;99.90;;;;;;4944680;28;20130;-74
2023/05/21 12:00:18;;;;;;;46.15;43.15;;;23.10;99.90;;;;;;4942758;28;19980;-74
2023/05/21 12:02:49;;;;;;;45.80;42.60;;;23.10;99.90;;;;;;4941387;28;20050;-75
2023/05/21 12:05:16;;;;;;;47.60;44.40;;;22.90;99.90;;;;;;4965429;28;20035;-72
2023/05/21 12:07:47;;;;;;;47.08;43.88;;;23.00;99.90;;;;;;4946128;28;20039;-75
2023/05/21 12:10:15;;;;;;;49.53;46.13;;;22.90;99.90;;;;;;4947653;28;20051;-75
2023/05/21 12:12:41;;;;;;;49.97;46.45;;;23.00;99.90;;;;;;4946542;28;20310;-73
2023/05/21 12:15:23;;;;;;;51.03;47.55;;;23.00;99.90;;;;;;4945695;28;20050;-71
2023/05/21 12:17:51;;;;;;;49.67;46.28;;;23.10;99.90;;;;;;4972324;28;20129;-73
2023/05/21 12:20:18;;;;;;;49.13;45.85;;;23.30;99.90;;;;;;4947444;28;20038;-73
2023/05/21 12:22:47;;;;;;;47.08;43.83;;;23.30;99.90;;;;;;4950532;28;20043;-73
2023/05/21 12:25:18;;;;;;;50.47;46.97;;;23.40;99.90;;;;;;4940392;28;20035;-73
2023/05/21 12:27:46;;;;;;;47.70;44.63;;;23.30;99.90;;;;;;4950778;28;20058;-74
2023/05/21 12:30:13;;;;;;;46.50;43.22;;;23.90;99.90;;;;;;4947134;28;20096;-74
2023/05/21 12:32:44;;;;;;;48.50;45.25;;;24.20;99.90;;;;;;4948266;28;20044;-74
2023/05/21 12:35:21;;;;;;;47.15;44.10;;;24.00;99.90;;;;;;4945392;28;20054;-73
2023/05/21 12:37:52;;;;;;;48.67;45.45;;;24.10;99.90;;;;;;4948953;28;20694;-72
2023/05/21 12:40:19;;;;;;;45.38;42.40;;;24.30;99.90;;;;;;4941973;28;20201;-72